sensor_id;sensor_type;location;lat;lon;timestamp;pressure;altitude;pressure_sealevel;temperature
64947;BMP280;51469;52.150;4.682;2023-03-23T00:01:10;100309.97;;;18.56
64947;BMP280;51469;52.150;4.682;2023-03-23T00:03:38;100315.63;;;18.65
64947;BMP280;51469;52.150;4.682;2023-03-23T00:06:04;100297.94;;;18.71
64947;BMP280;51469;52.150;4.682;2023-03-23T00:08:36;100290.09;;;18.57
64947;BMP280;51469;52.150;4.682;2023-03-23T00:11:06;100287.97;;;18.61
64947;BMP280;51469;52.150;4.682;2023-03-23T00:13:32;100290.84;;;18.70
64947;BMP280;51469;52.150;4.682;2023-03-23T00:15:58;100295.84;;;18.63
64947;BMP280;51469;52.150;4.682;2023-03-23T00:18:23;100289.84;;;18.52
64947;BMP280;51469;52.150;4.682;2023-03-23T00:20:51;100290.06;;;18.70
64947;BMP280;51469;52.150;4.682;2023-03-23T00:23:18;100293.72;;;18.79
64947;BMP280;51469;52.150;4.682;2023-03-23T00:25:48;100282.34;;;18.86
64947;BMP280;51469;52.150;4.682;2023-03-23T00:28:15;100291.13;;;18.85
64947;BMP280;51469;52.150;4.682;2023-03-23T00:30:42;100279.53;;;18.52
64947;BMP280;51469;52.150;4.682;2023-03-23T00:33:08;100269.22;;;18.53
64947;BMP280;51469;52.150;4.682;2023-03-23T00:35:34;100268.97;;;18.47
64947;BMP280;51469;52.150;4.682;2023-03-23T00:38:01;100258.50;;;18.64
64947;BMP280;51469;52.150;4.682;2023-03-23T00:40:27;100259.47;;;18.82
64947;BMP280;51469;52.150;4.682;2023-03-23T00:42:53;100258.69;;;18.82
64947;BMP280;51469;52.150;4.682;2023-03-23T00:45:18;100253.38;;;18.75
64947;BMP280;51469;52.150;4.682;2023-03-23T00:47:43;100232.16;;;18.68
64947;BMP280;51469;52.150;4.682;2023-03-23T00:50:12;100240.16;;;18.79
64947;BMP280;51469;52.150;4.682;2023-03-23T00:52:39;100259.41;;;18.61
64947;BMP280;51469;52.150;4.682;2023-03-23T00:55:06;100249.59;;;18.69
64947;BMP280;51469;52.150;4.682;2023-03-23T00:57:31;100239.16;;;18.73
64947;BMP280;51469;52.150;4.682;2023-03-23T00:59:57;100251.63;;;18.56
64947;BMP280;51469;52.150;4.682;2023-03-23T01:02:22;100259.84;;;18.59
64947;BMP280;51469;52.150;4.682;2023-03-23T01:04:50;100256.06;;;18.66
64947;BMP280;51469;52.150;4.682;2023-03-23T01:07:18;100252.81;;;18.67
64947;BMP280;51469;52.150;4.682;2023-03-23T01:09:46;100250.72;;;18.59
64947;BMP280;51469;52.150;4.682;2023-03-23T01:12:11;100245.03;;;18.62
64947;BMP280;51469;52.150;4.682;2023-03-23T01:14:37;100235.38;;;18.67
64947;BMP280;51469;52.150;4.682;2023-03-23T01:17:02;100229.81;;;18.67
64947;BMP280;51469;52.150;4.682;2023-03-23T01:19:28;100221.41;;;18.58
64947;BMP280;51469;52.150;4.682;2023-03-23T01:21:53;100226.06;;;18.61
64947;BMP280;51469;52.150;4.682;2023-03-23T01:24:18;100234.09;;;18.34
64947;BMP280;51469;52.150;4.682;2023-03-23T01:26:44;100219.53;;;18.55
64947;BMP280;51469;52.150;4.682;2023-03-23T01:29:10;100217.50;;;18.55
64947;BMP280;51469;52.150;4.682;2023-03-23T01:31:35;100216.50;;;18.62
64947;BMP280;51469;52.150;4.682;2023-03-23T01:34:02;100221.88;;;18.44
64947;BMP280;51469;52.150;4.682;2023-03-23T01:36:29;100215.16;;;18.54
64947;BMP280;51469;52.150;4.682;2023-03-23T01:38:58;100209.09;;;18.46
64947;BMP280;51469;52.150;4.682;2023-03-23T01:41:26;100215.09;;;18.57
64947;BMP280;51469;52.150;4.682;2023-03-23T01:46:20;100205.09;;;18.47
64947;BMP280;51469;52.150;4.682;2023-03-23T01:48:48;100217.16;;;18.53
64947;BMP280;51469;52.150;4.682;2023-03-23T01:51:15;100209.53;;;18.45
64947;BMP280;51469;52.150;4.682;2023-03-23T01:53:46;100187.97;;;18.49
64947;BMP280;51469;52.150;4.682;2023-03-23T01:56:14;100193.19;;;18.47
64947;BMP280;51469;52.150;4.682;2023-03-23T01:58:41;100190.16;;;18.54
64947;BMP280;51469;52.150;4.682;2023-03-23T02:01:10;100182.31;;;18.40
64947;BMP280;51469;52.150;4.682;2023-03-23T02:03:37;100185.84;;;18.40
64947;BMP280;51469;52.150;4.682;2023-03-23T02:06:04;100198.50;;;18.54
64947;BMP280;51469;52.150;4.682;2023-03-23T02:08:31;100183.88;;;18.41
64947;BMP280;51469;52.150;4.682;2023-03-23T02:10:58;100178.56;;;18.34
64947;BMP280;51469;52.150;4.682;2023-03-23T02:13:23;100186.78;;;18.37
64947;BMP280;51469;52.150;4.682;2023-03-23T02:16:21;100196.34;;;18.24
64947;BMP280;51469;52.150;4.682;2023-03-23T02:27:05;100207.66;;;18.17
64947;BMP280;51469;52.150;4.682;2023-03-23T02:29:47;100201.25;;;18.20
64947;BMP280;51469;52.150;4.682;2023-03-23T02:35:10;100200.78;;;18.34
64947;BMP280;51469;52.150;4.682;2023-03-23T02:37:50;100191.31;;;18.44
64947;BMP280;51469;52.150;4.682;2023-03-23T02:40:20;100204.78;;;18.33
64947;BMP280;51469;52.150;4.682;2023-03-23T02:42:49;100183.00;;;18.44
64947;BMP280;51469;52.150;4.682;2023-03-23T02:45:15;100181.44;;;18.43
64947;BMP280;51469;52.150;4.682;2023-03-23T02:47:42;100183.66;;;18.48
64947;BMP280;51469;52.150;4.682;2023-03-23T02:50:11;100196.16;;;18.65
64947;BMP280;51469;52.150;4.682;2023-03-23T02:52:40;100179.88;;;18.42
64947;BMP280;51469;52.150;4.682;2023-03-23T02:55:08;100186.88;;;18.46
64947;BMP280;51469;52.150;4.682;2023-03-23T02:57:36;100180.31;;;18.53
64947;BMP280;51469;52.150;4.682;2023-03-23T03:00:04;100165.59;;;18.65
64947;BMP280;51469;52.150;4.682;2023-03-23T03:02:37;100182.06;;;18.59
64947;BMP280;51469;52.150;4.682;2023-03-23T03:07:50;100172.34;;;18.17
64947;BMP280;51469;52.150;4.682;2023-03-23T03:10:38;100193.25;;;17.97
64947;BMP280;51469;52.150;4.682;2023-03-23T03:18:34;100168.16;;;17.88
64947;BMP280;51469;52.150;4.682;2023-03-23T03:21:06;100160.06;;;17.81
64947;BMP280;51469;52.150;4.682;2023-03-23T03:23:34;100184.81;;;17.88
64947;BMP280;51469;52.150;4.682;2023-03-23T03:26:02;100182.34;;;17.90
64947;BMP280;51469;52.150;4.682;2023-03-23T03:28:31;100191.78;;;17.80
64947;BMP280;51469;52.150;4.682;2023-03-23T03:30:58;100201.03;;;18.02
64947;BMP280;51469;52.150;4.682;2023-03-23T03:33:28;100203.41;;;17.75
64947;BMP280;51469;52.150;4.682;2023-03-23T03:35:57;100212.44;;;17.79
64947;BMP280;51469;52.150;4.682;2023-03-23T03:38:24;100214.25;;;17.57
64947;BMP280;51469;52.150;4.682;2023-03-23T03:40:50;100203.88;;;17.33
64947;BMP280;51469;52.150;4.682;2023-03-23T03:43:16;100209.53;;;17.29
64947;BMP280;51469;52.150;4.682;2023-03-23T03:45:42;100207.13;;;17.31
64947;BMP280;51469;52.150;4.682;2023-03-23T03:48:07;100199.22;;;17.30
64947;BMP280;51469;52.150;4.682;2023-03-23T03:50:32;100212.84;;;17.24
64947;BMP280;51469;52.150;4.682;2023-03-23T03:52:58;100206.22;;;17.34
64947;BMP280;51469;52.150;4.682;2023-03-23T03:55:23;100217.47;;;17.27
64947;BMP280;51469;52.150;4.682;2023-03-23T03:57:49;100211.19;;;17.27
64947;BMP280;51469;52.150;4.682;2023-03-23T04:00:14;100208.50;;;17.23
64947;BMP280;51469;52.150;4.682;2023-03-23T04:02:45;100202.44;;;17.28
64947;BMP280;51469;52.150;4.682;2023-03-23T04:05:16;100213.31;;;17.35
64947;BMP280;51469;52.150;4.682;2023-03-23T04:07:41;100207.13;;;17.31
64947;BMP280;51469;52.150;4.682;2023-03-23T04:10:08;100225.56;;;17.22
64947;BMP280;51469;52.150;4.682;2023-03-23T04:12:35;100206.63;;;17.20
64947;BMP280;51469;52.150;4.682;2023-03-23T04:15:02;100206.41;;;17.27
64947;BMP280;51469;52.150;4.682;2023-03-23T04:17:27;100233.59;;;17.32
64947;BMP280;51469;52.150;4.682;2023-03-23T04:19:53;100199.59;;;17.44
64947;BMP280;51469;52.150;4.682;2023-03-23T04:22:22;100198.53;;;17.54
64947;BMP280;51469;52.150;4.682;2023-03-23T04:24:50;100219.00;;;17.44
64947;BMP280;51469;52.150;4.682;2023-03-23T04:27:16;100237.78;;;17.24
64947;BMP280;51469;52.150;4.682;2023-03-23T04:29:42;100238.19;;;16.94
64947;BMP280;51469;52.150;4.682;2023-03-23T04:32:07;100223.78;;;16.99
64947;BMP280;51469;52.150;4.682;2023-03-23T04:34:33;100240.31;;;17.02
64947;BMP280;51469;52.150;4.682;2023-03-23T04:37:00;100238.69;;;16.89
64947;BMP280;51469;52.150;4.682;2023-03-23T04:39:25;100241.91;;;17.04
64947;BMP280;51469;52.150;4.682;2023-03-23T04:41:54;100243.72;;;16.94
64947;BMP280;51469;52.150;4.682;2023-03-23T04:44:19;100236.22;;;17.07
64947;BMP280;51469;52.150;4.682;2023-03-23T04:46:46;100251.75;;;17.21
64947;BMP280;51469;52.150;4.682;2023-03-23T04:49:15;100260.66;;;17.12
64947;BMP280;51469;52.150;4.682;2023-03-23T04:51:46;100241.63;;;17.14
64947;BMP280;51469;52.150;4.682;2023-03-23T04:54:11;100248.72;;;17.15
64947;BMP280;51469;52.150;4.682;2023-03-23T04:56:37;100237.66;;;17.15
64947;BMP280;51469;52.150;4.682;2023-03-23T04:59:03;100238.47;;;17.12
64947;BMP280;51469;52.150;4.682;2023-03-23T05:01:28;100255.47;;;17.14
64947;BMP280;51469;52.150;4.682;2023-03-23T05:03:54;100250.84;;;17.23
64947;BMP280;51469;52.150;4.682;2023-03-23T05:06:19;100247.69;;;17.25
64947;BMP280;51469;52.150;4.682;2023-03-23T05:08:45;100259.59;;;17.22
64947;BMP280;51469;52.150;4.682;2023-03-23T05:11:11;100269.44;;;17.11
64947;BMP280;51469;52.150;4.682;2023-03-23T05:13:37;100261.91;;;16.95
64947;BMP280;51469;52.150;4.682;2023-03-23T05:16:03;100265.38;;;16.83
64947;BMP280;51469;52.150;4.682;2023-03-23T05:18:29;100264.84;;;17.04
64947;BMP280;51469;52.150;4.682;2023-03-23T05:20:54;100268.81;;;17.19
64947;BMP280;51469;52.150;4.682;2023-03-23T05:23:20;100272.25;;;17.23
64947;BMP280;51469;52.150;4.682;2023-03-23T05:25:55;100277.06;;;17.07
64947;BMP280;51469;52.150;4.682;2023-03-23T05:28:20;100285.59;;;17.12
64947;BMP280;51469;52.150;4.682;2023-03-23T05:30:47;100278.88;;;17.13
64947;BMP280;51469;52.150;4.682;2023-03-23T05:33:13;100273.34;;;16.97
64947;BMP280;51469;52.150;4.682;2023-03-23T05:35:38;100277.16;;;16.71
64947;BMP280;51469;52.150;4.682;2023-03-23T05:38:03;100286.44;;;16.97
64947;BMP280;51469;52.150;4.682;2023-03-23T05:40:29;100291.34;;;16.73
64947;BMP280;51469;52.150;4.682;2023-03-23T05:42:55;100298.63;;;16.83
64947;BMP280;51469;52.150;4.682;2023-03-23T05:45:22;100292.22;;;16.86
64947;BMP280;51469;52.150;4.682;2023-03-23T05:47:48;100284.50;;;16.77
64947;BMP280;51469;52.150;4.682;2023-03-23T05:50:13;100303.81;;;16.81
64947;BMP280;51469;52.150;4.682;2023-03-23T05:52:39;100294.47;;;16.91
64947;BMP280;51469;52.150;4.682;2023-03-23T05:55:05;100304.53;;;17.01
64947;BMP280;51469;52.150;4.682;2023-03-23T05:57:31;100308.41;;;17.04
64947;BMP280;51469;52.150;4.682;2023-03-23T05:59:57;100313.88;;;16.91
64947;BMP280;51469;52.150;4.682;2023-03-23T06:02:24;100315.50;;;17.05
64947;BMP280;51469;52.150;4.682;2023-03-23T06:04:50;100302.19;;;17.00
64947;BMP280;51469;52.150;4.682;2023-03-23T06:07:16;100315.25;;;16.99
64947;BMP280;51469;52.150;4.682;2023-03-23T06:09:41;100305.75;;;17.00
64947;BMP280;51469;52.150;4.682;2023-03-23T06:12:08;100320.03;;;16.99
64947;BMP280;51469;52.150;4.682;2023-03-23T06:14:35;100307.81;;;16.96
64947;BMP280;51469;52.150;4.682;2023-03-23T06:17:00;100325.28;;;16.93
64947;BMP280;51469;52.150;4.682;2023-03-23T06:19:26;100316.81;;;17.16
64947;BMP280;51469;52.150;4.682;2023-03-23T06:21:53;100325.47;;;17.18
64947;BMP280;51469;52.150;4.682;2023-03-23T06:24:19;100322.66;;;17.34
64947;BMP280;51469;52.150;4.682;2023-03-23T06:26:44;100332.88;;;17.37
64947;BMP280;51469;52.150;4.682;2023-03-23T06:29:10;100338.50;;;17.33
64947;BMP280;51469;52.150;4.682;2023-03-23T06:31:40;100336.53;;;17.18
64947;BMP280;51469;52.150;4.682;2023-03-23T06:34:07;100336.16;;;17.32
64947;BMP280;51469;52.150;4.682;2023-03-23T06:36:34;100346.25;;;17.26
64947;BMP280;51469;52.150;4.682;2023-03-23T06:38:59;100341.22;;;17.21
64947;BMP280;51469;52.150;4.682;2023-03-23T06:41:25;100327.97;;;17.13
64947;BMP280;51469;52.150;4.682;2023-03-23T06:43:50;100338.91;;;17.20
64947;BMP280;51469;52.150;4.682;2023-03-23T06:46:16;100338.78;;;17.23
64947;BMP280;51469;52.150;4.682;2023-03-23T06:48:42;100364.69;;;17.33
64947;BMP280;51469;52.150;4.682;2023-03-23T06:51:07;100352.13;;;17.28
64947;BMP280;51469;52.150;4.682;2023-03-23T06:53:32;100347.25;;;17.32
64947;BMP280;51469;52.150;4.682;2023-03-23T06:55:58;100360.13;;;17.26
64947;BMP280;51469;52.150;4.682;2023-03-23T06:58:23;100357.63;;;17.60
64947;BMP280;51469;52.150;4.682;2023-03-23T07:00:58;100340.81;;;17.51
64947;BMP280;51469;52.150;4.682;2023-03-23T07:03:24;100349.16;;;17.51
64947;BMP280;51469;52.150;4.682;2023-03-23T07:05:51;100367.69;;;17.54
64947;BMP280;51469;52.150;4.682;2023-03-23T07:08:17;100364.72;;;17.61
64947;BMP280;51469;52.150;4.682;2023-03-23T07:10:42;100364.09;;;17.41
64947;BMP280;51469;52.150;4.682;2023-03-23T07:13:09;100367.03;;;17.34
64947;BMP280;51469;52.150;4.682;2023-03-23T07:15:34;100354.38;;;17.33
64947;BMP280;51469;52.150;4.682;2023-03-23T07:17:59;100362.00;;;17.45
64947;BMP280;51469;52.150;4.682;2023-03-23T07:20:25;100360.59;;;17.53
64947;BMP280;51469;52.150;4.682;2023-03-23T07:22:50;100355.28;;;17.58
64947;BMP280;51469;52.150;4.682;2023-03-23T07:25:17;100360.69;;;17.33
64947;BMP280;51469;52.150;4.682;2023-03-23T07:27:44;100373.06;;;17.45
64947;BMP280;51469;52.150;4.682;2023-03-23T07:30:11;100386.06;;;17.32
64947;BMP280;51469;52.150;4.682;2023-03-23T07:32:37;100372.06;;;17.39
64947;BMP280;51469;52.150;4.682;2023-03-23T07:35:02;100377.41;;;17.30
64947;BMP280;51469;52.150;4.682;2023-03-23T07:37:29;100369.63;;;17.41
64947;BMP280;51469;52.150;4.682;2023-03-23T07:39:54;100370.81;;;17.40
64947;BMP280;51469;52.150;4.682;2023-03-23T07:42:20;100373.06;;;17.45
64947;BMP280;51469;52.150;4.682;2023-03-23T07:44:46;100376.44;;;17.52
64947;BMP280;51469;52.150;4.682;2023-03-23T07:47:11;100361.13;;;17.48
64947;BMP280;51469;52.150;4.682;2023-03-23T07:49:36;100370.78;;;17.72
64947;BMP280;51469;52.150;4.682;2023-03-23T07:52:02;100367.47;;;17.77
64947;BMP280;51469;52.150;4.682;2023-03-23T07:54:28;100381.44;;;18.02
64947;BMP280;51469;52.150;4.682;2023-03-23T07:56:54;100386.22;;;18.14
64947;BMP280;51469;52.150;4.682;2023-03-23T07:59:19;100375.25;;;18.23
64947;BMP280;51469;52.150;4.682;2023-03-23T08:01:45;100392.81;;;18.32
64947;BMP280;51469;52.150;4.682;2023-03-23T08:04:11;100389.69;;;18.30
64947;BMP280;51469;52.150;4.682;2023-03-23T08:06:38;100393.81;;;18.26
64947;BMP280;51469;52.150;4.682;2023-03-23T08:09:04;100402.56;;;18.12
64947;BMP280;51469;52.150;4.682;2023-03-23T08:11:33;100401.47;;;18.22
64947;BMP280;51469;52.150;4.682;2023-03-23T08:13:59;100403.47;;;18.21
64947;BMP280;51469;52.150;4.682;2023-03-23T08:16:24;100403.00;;;18.10
64947;BMP280;51469;52.150;4.682;2023-03-23T08:18:50;100409.53;;;18.04
64947;BMP280;51469;52.150;4.682;2023-03-23T08:21:16;100418.97;;;18.06
64947;BMP280;51469;52.150;4.682;2023-03-23T08:23:41;100415.03;;;18.20
64947;BMP280;51469;52.150;4.682;2023-03-23T08:26:08;100405.88;;;18.48
64947;BMP280;51469;52.150;4.682;2023-03-23T08:28:34;100416.31;;;18.69
64947;BMP280;51469;52.150;4.682;2023-03-23T08:31:05;100420.00;;;18.78
64947;BMP280;51469;52.150;4.682;2023-03-23T08:33:31;100425.66;;;19.00
64947;BMP280;51469;52.150;4.682;2023-03-23T08:35:58;100410.28;;;19.08
64947;BMP280;51469;52.150;4.682;2023-03-23T08:38:24;100419.72;;;19.35
64947;BMP280;51469;52.150;4.682;2023-03-23T08:40:50;100411.69;;;19.50
64947;BMP280;51469;52.150;4.682;2023-03-23T08:43:16;100410.28;;;19.33
64947;BMP280;51469;52.150;4.682;2023-03-23T08:45:42;100416.31;;;19.19
64947;BMP280;51469;52.150;4.682;2023-03-23T08:48:08;100421.91;;;19.53
64947;BMP280;51469;52.150;4.682;2023-03-23T08:50:34;100440.56;;;19.65
64947;BMP280;51469;52.150;4.682;2023-03-23T08:53:01;100428.88;;;19.70
64947;BMP280;51469;52.150;4.682;2023-03-23T08:55:26;100429.13;;;19.63
64947;BMP280;51469;52.150;4.682;2023-03-23T08:57:52;100434.50;;;19.45
64947;BMP280;51469;52.150;4.682;2023-03-23T09:02:55;100434.72;;;19.50
64947;BMP280;51469;52.150;4.682;2023-03-23T09:05:23;100427.84;;;19.30
64947;BMP280;51469;52.150;4.682;2023-03-23T09:07:54;100425.94;;;19.39
64947;BMP280;51469;52.150;4.682;2023-03-23T09:10:20;100429.72;;;19.45
64947;BMP280;51469;52.150;4.682;2023-03-23T09:12:47;100414.91;;;19.48
64947;BMP280;51469;52.150;4.682;2023-03-23T09:15:14;100425.72;;;19.68
64947;BMP280;51469;52.150;4.682;2023-03-23T09:17:48;100431.47;;;19.86
64947;BMP280;51469;52.150;4.682;2023-03-23T09:20:17;100431.31;;;19.68
64947;BMP280;51469;52.150;4.682;2023-03-23T09:22:45;100431.47;;;20.29
64947;BMP280;51469;52.150;4.682;2023-03-23T09:25:13;100431.88;;;20.49
64947;BMP280;51469;52.150;4.682;2023-03-23T09:27:41;100423.09;;;20.29
64947;BMP280;51469;52.150;4.682;2023-03-23T09:30:09;100422.09;;;20.44
64947;BMP280;51469;52.150;4.682;2023-03-23T09:32:36;100427.53;;;20.48
64947;BMP280;51469;52.150;4.682;2023-03-23T09:35:02;100424.47;;;20.46
64947;BMP280;51469;52.150;4.682;2023-03-23T09:37:28;100446.75;;;20.46
64947;BMP280;51469;52.150;4.682;2023-03-23T09:39:54;100434.94;;;20.42
64947;BMP280;51469;52.150;4.682;2023-03-23T09:42:32;100442.16;;;20.09
64947;BMP280;51469;52.150;4.682;2023-03-23T09:50:42;100441.94;;;20.03
64947;BMP280;51469;52.150;4.682;2023-03-23T09:55:38;100459.81;;;20.15
64947;BMP280;51469;52.150;4.682;2023-03-23T09:58:31;100467.19;;;20.52
64947;BMP280;51469;52.150;4.682;2023-03-23T10:01:06;100458.53;;;20.07
64947;BMP280;51469;52.150;4.682;2023-03-23T10:03:42;100471.09;;;19.90
64947;BMP280;51469;52.150;4.682;2023-03-23T10:06:16;100474.09;;;20.17
64947;BMP280;51469;52.150;4.682;2023-03-23T10:08:47;100470.03;;;20.61
64947;BMP280;51469;52.150;4.682;2023-03-23T10:11:50;100492.16;;;20.86
64947;BMP280;51469;52.150;4.682;2023-03-23T10:17:14;100469.88;;;21.04
64947;BMP280;51469;52.150;4.682;2023-03-23T10:22:27;100488.59;;;21.25
64947;BMP280;51469;52.150;4.682;2023-03-23T10:25:23;100464.38;;;21.22
64947;BMP280;51469;52.150;4.682;2023-03-23T10:27:59;100491.59;;;21.57
64947;BMP280;51469;52.150;4.682;2023-03-23T10:30:33;100478.56;;;21.63
64947;BMP280;51469;52.150;4.682;2023-03-23T10:35:39;100483.00;;;22.24
64947;BMP280;51469;52.150;4.682;2023-03-23T10:38:18;100470.03;;;22.12
64947;BMP280;51469;52.150;4.682;2023-03-23T10:40:57;100476.34;;;22.30
64947;BMP280;51469;52.150;4.682;2023-03-23T10:43:24;100476.88;;;21.66
64947;BMP280;51469;52.150;4.682;2023-03-23T10:45:56;100481.66;;;21.83
64947;BMP280;51469;52.150;4.682;2023-03-23T10:48:28;100488.28;;;21.23
64947;BMP280;51469;52.150;4.682;2023-03-23T10:50:58;100492.03;;;21.47
64947;BMP280;51469;52.150;4.682;2023-03-23T10:53:34;100492.69;;;21.78
64947;BMP280;51469;52.150;4.682;2023-03-23T10:56:01;100485.38;;;21.71
64947;BMP280;51469;52.150;4.682;2023-03-23T10:58:34;100486.47;;;22.10
64947;BMP280;51469;52.150;4.682;2023-03-23T11:01:03;100475.91;;;22.23
64947;BMP280;51469;52.150;4.682;2023-03-23T11:03:41;100479.59;;;22.29
64947;BMP280;51469;52.150;4.682;2023-03-23T11:06:29;100489.47;;;22.57
64947;BMP280;51469;52.150;4.682;2023-03-23T11:08:57;100494.19;;;22.42
64947;BMP280;51469;52.150;4.682;2023-03-23T11:11:28;100485.69;;;22.69
64947;BMP280;51469;52.150;4.682;2023-03-23T11:14:14;100475.00;;;22.58
64947;BMP280;51469;52.150;4.682;2023-03-23T11:16:45;100476.81;;;22.38
64947;BMP280;51469;52.150;4.682;2023-03-23T11:19:16;100479.84;;;22.58
64947;BMP280;51469;52.150;4.682;2023-03-23T11:21:50;100488.59;;;22.33
64947;BMP280;51469;52.150;4.682;2023-03-23T11:24:17;100474.66;;;22.06
64947;BMP280;51469;52.150;4.682;2023-03-23T11:26:44;100488.78;;;22.02
64947;BMP280;51469;52.150;4.682;2023-03-23T11:29:17;100487.41;;;22.07
64947;BMP280;51469;52.150;4.682;2023-03-23T11:31:45;100484.00;;;21.94
64947;BMP280;51469;52.150;4.682;2023-03-23T11:34:21;100480.91;;;22.01
64947;BMP280;51469;52.150;4.682;2023-03-23T11:37:09;100474.06;;;21.75
64947;BMP280;51469;52.150;4.682;2023-03-23T11:42:19;100476.81;;;22.29
64947;BMP280;51469;52.150;4.682;2023-03-23T11:44:44;100476.13;;;22.52
64947;BMP280;51469;52.150;4.682;2023-03-23T11:58:15;100486.78;;;22.12
64947;BMP280;51469;52.150;4.682;2023-03-23T12:00:49;100480.91;;;22.01
64947;BMP280;51469;52.150;4.682;2023-03-23T12:06:05;100489.56;;;21.49
64947;BMP280;51469;52.150;4.682;2023-03-23T12:11:27;100490.50;;;21.64
64947;BMP280;51469;52.150;4.682;2023-03-23T12:14:17;100496.09;;;21.64
64947;BMP280;51469;52.150;4.682;2023-03-23T12:19:55;100478.41;;;22.12
64947;BMP280;51469;52.150;4.682;2023-03-23T12:22:32;100477.41;;;22.42
64947;BMP280;51469;52.150;4.682;2023-03-23T12:28:29;100458.69;;;22.66
64947;BMP280;51469;52.150;4.682;2023-03-23T12:31:01;100471.41;;;22.67
64947;BMP280;51469;52.150;4.682;2023-03-23T12:33:51;100484.44;;;22.79
64947;BMP280;51469;52.150;4.682;2023-03-23T12:39:03;100480.34;;;22.79
64947;BMP280;51469;52.150;4.682;2023-03-23T12:41:49;100472.16;;;22.35
64947;BMP280;51469;52.150;4.682;2023-03-23T12:44:20;100479.53;;;22.65
64947;BMP280;51469;52.150;4.682;2023-03-23T12:49:38;100470.31;;;22.23
64947;BMP280;51469;52.150;4.682;2023-03-23T12:52:19;100450.09;;;22.28
64947;BMP280;51469;52.150;4.682;2023-03-23T12:55:08;100465.63;;;22.38
64947;BMP280;51469;52.150;4.682;2023-03-23T12:57:41;100464.00;;;22.55
64947;BMP280;51469;52.150;4.682;2023-03-23T13:00:22;100465.31;;;22.45
64947;BMP280;51469;52.150;4.682;2023-03-23T13:03:09;100473.13;;;22.05
64947;BMP280;51469;52.150;4.682;2023-03-23T13:05:47;100488.34;;;21.95
64947;BMP280;51469;52.150;4.682;2023-03-23T13:08:30;100479.06;;;21.89
64947;BMP280;51469;52.150;4.682;2023-03-23T13:11:03;100490.84;;;21.93
64947;BMP280;51469;52.150;4.682;2023-03-23T13:13:51;100501.06;;;21.78
64947;BMP280;51469;52.150;4.682;2023-03-23T13:16:42;100519.22;;;21.64
64947;BMP280;51469;52.150;4.682;2023-03-23T13:22:15;100487.41;;;21.71
64947;BMP280;51469;52.150;4.682;2023-03-23T13:24:56;100508.97;;;21.79
64947;BMP280;51469;52.150;4.682;2023-03-23T13:27:26;100507.53;;;21.39
64947;BMP280;51469;52.150;4.682;2023-03-23T13:29:58;100501.00;;;21.42
64947;BMP280;51469;52.150;4.682;2023-03-23T13:32:35;100501.66;;;21.91
64947;BMP280;51469;52.150;4.682;2023-03-23T13:35:11;100510.72;;;22.04
64947;BMP280;51469;52.150;4.682;2023-03-23T13:37:41;100511.31;;;21.99
64947;BMP280;51469;52.150;4.682;2023-03-23T13:42:48;100507.56;;;22.11
64947;BMP280;51469;52.150;4.682;2023-03-23T13:47:43;100491.59;;;21.84
64947;BMP280;51469;52.150;4.682;2023-03-23T14:10:53;100470.81;;;22.95
64947;BMP280;51469;52.150;4.682;2023-03-23T14:13:35;100480.88;;;23.01
64947;BMP280;51469;52.150;4.682;2023-03-23T14:16:04;100479.47;;;22.83
64947;BMP280;51469;52.150;4.682;2023-03-23T14:18:41;100465.88;;;22.49
64947;BMP280;51469;52.150;4.682;2023-03-23T14:21:32;100470.59;;;22.34
64947;BMP280;51469;52.150;4.682;2023-03-23T14:24:13;100472.72;;;22.48
64947;BMP280;51469;52.150;4.682;2023-03-23T14:26:40;100463.88;;;22.49
64947;BMP280;51469;52.150;4.682;2023-03-23T14:29:10;100445.13;;;22.32
64947;BMP280;51469;52.150;4.682;2023-03-23T14:31:37;100422.16;;;22.28
64947;BMP280;51469;52.150;4.682;2023-03-23T14:34:09;100418.75;;;22.24
64947;BMP280;51469;52.150;4.682;2023-03-23T14:36:37;100419.63;;;22.48
64947;BMP280;51469;52.150;4.682;2023-03-23T14:39:07;100413.78;;;22.69
64947;BMP280;51469;52.150;4.682;2023-03-23T14:41:38;100406.63;;;22.68
64947;BMP280;51469;52.150;4.682;2023-03-23T14:44:06;100408.94;;;22.70
64947;BMP280;51469;52.150;4.682;2023-03-23T14:46:34;100403.63;;;22.81
64947;BMP280;51469;52.150;4.682;2023-03-23T14:49:01;100408.59;;;22.77
64947;BMP280;51469;52.150;4.682;2023-03-23T14:51:27;100415.22;;;22.56
64947;BMP280;51469;52.150;4.682;2023-03-23T14:53:53;100405.25;;;22.64
64947;BMP280;51469;52.150;4.682;2023-03-23T14:56:20;100425.38;;;22.77
64947;BMP280;51469;52.150;4.682;2023-03-23T14:58:50;100425.72;;;22.70
64947;BMP280;51469;52.150;4.682;2023-03-23T15:01:30;100428.06;;;22.30
64947;BMP280;51469;52.150;4.682;2023-03-23T15:04:02;100429.38;;;22.02
64947;BMP280;51469;52.150;4.682;2023-03-23T15:06:31;100423.59;;;22.23
64947;BMP280;51469;52.150;4.682;2023-03-23T15:09:01;100426.22;;;22.27
64947;BMP280;51469;52.150;4.682;2023-03-23T15:11:32;100410.69;;;22.35
64947;BMP280;51469;52.150;4.682;2023-03-23T15:14:02;100409.47;;;22.27
64947;BMP280;51469;52.150;4.682;2023-03-23T15:16:33;100402.53;;;22.46
64947;BMP280;51469;52.150;4.682;2023-03-23T15:19:05;100389.50;;;22.43
64947;BMP280;51469;52.150;4.682;2023-03-23T15:21:38;100391.13;;;22.26
64947;BMP280;51469;52.150;4.682;2023-03-23T15:24:32;100392.78;;;22.41
64947;BMP280;51469;52.150;4.682;2023-03-23T15:27:14;100385.38;;;22.29
64947;BMP280;51469;52.150;4.682;2023-03-23T15:29:52;100374.19;;;22.29
64947;BMP280;51469;52.150;4.682;2023-03-23T15:32:39;100375.31;;;22.14
64947;BMP280;51469;52.150;4.682;2023-03-23T15:35:24;100380.66;;;21.94
64947;BMP280;51469;52.150;4.682;2023-03-23T15:37:58;100395.81;;;22.11
64947;BMP280;51469;52.150;4.682;2023-03-23T15:40:26;100392.44;;;21.98
64947;BMP280;51469;52.150;4.682;2023-03-23T15:43:18;100372.88;;;22.07
64947;BMP280;51469;52.150;4.682;2023-03-23T15:46:05;100383.50;;;21.76
64947;BMP280;51469;52.150;4.682;2023-03-23T15:48:53;100370.69;;;22.02
64947;BMP280;51469;52.150;4.682;2023-03-23T15:51:24;100368.81;;;22.08